createdAt,value
2023-04-28T00:01:24.331Z,7.30
2023-04-28T00:05:25.522Z,7.30
2023-04-28T00:09:26.147Z,7.30
2023-04-28T00:13:26.810Z,7.30
2023-04-28T00:17:29.816Z,7.40
2023-04-28T00:21:30.184Z,7.40
2023-04-28T00:25:30.400Z,7.50
2023-04-28T00:29:33.154Z,7.50
2023-04-28T00:33:35.993Z,7.60
2023-04-28T00:37:39.811Z,7.60
2023-04-28T00:41:40.073Z,7.60
2023-04-28T00:45:40.284Z,7.70
2023-04-28T00:49:43.763Z,7.60
2023-04-28T00:53:44.450Z,7.60
2023-04-28T00:57:45.536Z,7.60
2023-04-28T01:01:47.760Z,7.50
2023-04-28T01:05:51.263Z,7.50
2023-04-28T01:09:51.860Z,7.50
2023-04-28T01:13:57.599Z,7.40
2023-04-28T01:17:59.150Z,7.40
2023-04-28T01:22:01.954Z,7.30
2023-04-28T01:26:04.779Z,7.20
2023-04-28T01:30:04.993Z,7.10
2023-04-28T01:34:05.217Z,7.10
2023-04-28T01:38:05.514Z,7.10
2023-04-28T01:42:08.932Z,7.10
2023-04-28T01:46:09.075Z,7.10
2023-04-28T01:50:10.821Z,7.10
2023-04-28T01:54:10.981Z,7.10
2023-04-28T01:58:13.796Z,7.10
2023-04-28T02:02:14.221Z,7.10
2023-04-28T02:06:14.488Z,7.10
2023-04-28T02:10:14.650Z,7.10
2023-04-28T02:14:17.965Z,7.10
2023-04-28T02:18:19.270Z,7.10
2023-04-28T02:22:19.520Z,7.10
2023-04-28T02:26:19.652Z,7.10
2023-04-28T02:30:22.800Z,7.10
2023-04-28T02:34:23.573Z,7.10
2023-04-28T02:38:23.811Z,7.10
2023-04-28T02:42:24.093Z,7.20
2023-04-28T02:46:27.204Z,7.20
2023-04-28T02:50:27.430Z,7.10
2023-04-28T02:54:30.342Z,7.10
2023-04-28T02:58:31.243Z,7.10
2023-04-28T03:02:34.134Z,7.00
2023-04-28T03:06:34.588Z,7.10
2023-04-28T03:10:34.863Z,7.10
2023-04-28T03:14:36.614Z,7.20
2023-04-28T03:18:39.407Z,7.30
2023-04-28T03:22:39.856Z,7.30
2023-04-28T03:26:40.122Z,7.30
2023-04-28T03:30:40.305Z,7.30
2023-04-28T03:34:43.157Z,7.30
2023-04-28T03:38:43.411Z,7.40
2023-04-28T03:42:43.575Z,7.50
2023-04-28T03:46:47.009Z,7.50
2023-04-28T03:50:49.870Z,7.50
2023-04-28T03:54:50.485Z,7.60
2023-04-28T03:58:53.817Z,7.60
2023-04-28T04:02:54.154Z,7.50
2023-04-28T04:06:57.230Z,7.60
2023-04-28T04:10:57.552Z,7.60
2023-04-28T04:14:57.905Z,7.60
2023-04-28T04:18:58.291Z,7.70
2023-04-28T04:23:08.864Z,7.70
2023-04-28T04:27:09.154Z,7.80
2023-04-28T04:31:15.480Z,7.80
2023-04-28T04:35:17.030Z,7.90
2023-04-28T04:39:19.857Z,7.90
2023-04-28T04:43:21.576Z,7.90
2023-04-28T04:47:24.254Z,8.00
2023-04-28T04:51:24.575Z,8.10
2023-04-28T04:55:28.198Z,8.20
2023-04-28T04:59:28.868Z,8.20
2023-04-28T05:03:35.502Z,8.30
2023-04-28T05:07:36.028Z,8.30
2023-04-28T05:11:38.995Z,8.30
2023-04-28T05:15:39.748Z,8.40
2023-04-28T05:20:12.841Z,8.50
2023-04-28T05:24:13.461Z,8.60
2023-04-28T05:28:17.076Z,8.70
2023-04-28T05:32:18.539Z,8.60
2023-04-28T05:36:19.142Z,8.60
2023-04-28T05:40:20.203Z,8.60
2023-04-28T05:44:23.246Z,8.60
2023-04-28T05:48:24.115Z,8.70
2023-04-28T05:52:24.333Z,8.70
2023-04-28T05:56:24.566Z,8.70
2023-04-28T06:00:27.789Z,8.70
2023-04-28T06:04:32.322Z,8.70
2023-04-28T06:08:33.658Z,8.70
2023-04-28T06:12:33.792Z,8.70
2023-04-28T06:16:37.195Z,8.80
2023-04-28T06:20:37.363Z,8.70
2023-04-28T06:24:37.654Z,8.80
2023-04-28T06:28:41.297Z,9.00
2023-04-28T06:32:46.926Z,9.10
2023-04-28T06:36:47.225Z,9.20
2023-04-28T06:40:48.135Z,9.30
2023-04-28T06:44:49.020Z,9.30
2023-04-28T06:48:51.883Z,9.40
2023-04-28T06:52:52.101Z,9.60
2023-04-28T06:56:52.214Z,9.70
2023-04-28T07:00:52.512Z,9.80
2023-04-28T07:04:55.733Z,9.90
2023-04-28T07:08:56.015Z,9.90
2023-04-28T07:12:56.261Z,10.00
2023-04-28T07:16:56.748Z,10.20
2023-04-28T07:20:59.695Z,10.30
2023-04-28T07:24:59.872Z,10.50
2023-04-28T07:29:00.124Z,10.60
2023-04-28T07:33:00.625Z,10.80
2023-04-28T07:37:03.910Z,10.90
2023-04-28T07:41:05.744Z,11.00
2023-04-28T07:45:09.803Z,11.20
2023-04-28T07:49:10.067Z,11.40
2023-04-28T07:53:13.043Z,11.50
2023-04-28T07:57:13.331Z,11.50
2023-04-28T08:01:13.531Z,11.40
2023-04-28T08:05:14.643Z,11.30
2023-04-28T08:09:17.664Z,11.10
2023-04-28T08:13:18.439Z,10.90
2023-04-28T08:17:18.644Z,10.50
2023-04-28T08:21:18.889Z,10.20
2023-04-28T08:25:21.719Z,9.90
2023-04-28T08:29:23.173Z,9.80
2023-04-28T08:33:24.382Z,9.60
2023-04-28T08:37:25.037Z,9.40
2023-04-28T08:41:30.169Z,9.40
2023-04-28T08:45:33.341Z,9.20
2023-04-28T08:49:39.527Z,9.10
2023-04-28T08:54:08.768Z,9.10
2023-04-28T08:58:07.831Z,9.10
2023-04-28T09:02:08.588Z,9.20
2023-04-28T09:06:09.003Z,9.10
2023-04-28T09:10:27.325Z,9.10
2023-04-28T09:14:31.538Z,9.30
2023-04-28T09:18:33.168Z,9.50
2023-04-28T09:22:35.650Z,9.70
2023-04-28T09:26:55.337Z,9.80
2023-04-28T09:30:58.913Z,9.90
2023-04-28T09:34:59.881Z,9.80
2023-04-28T09:39:02.198Z,9.60
2023-04-28T09:43:15.105Z,9.50
2023-04-28T09:47:26.093Z,9.30
2023-04-28T09:51:26.946Z,9.10
2023-04-28T09:55:29.366Z,9.10
2023-04-28T09:59:32.359Z,9.10
2023-04-28T10:03:35.567Z,9.00
2023-04-28T10:07:38.087Z,9.10
2023-04-28T10:12:15.890Z,9.00
2023-04-28T10:16:18.188Z,9.00
2023-04-28T10:20:23.679Z,8.90
2023-04-28T10:24:33.809Z,8.90
2023-04-28T10:28:35.131Z,8.90
2023-04-28T10:32:35.709Z,8.90
2023-04-28T10:36:57.767Z,8.80
2023-04-28T10:41:05.485Z,8.90
2023-04-28T10:45:05.951Z,8.90
2023-04-28T10:49:06.457Z,8.90
2023-04-28T10:53:12.232Z,8.90
2023-04-28T10:57:24.935Z,9.00
2023-04-28T11:01:35.351Z,9.10
2023-04-28T11:05:38.319Z,9.20
2023-04-28T11:09:59.114Z,9.50
2023-04-28T11:14:37.847Z,9.60
2023-04-28T11:19:07.665Z,9.60
2023-04-28T11:23:13.753Z,9.60
2023-04-28T11:27:31.291Z,9.60
2023-04-28T11:31:37.087Z,9.60
2023-04-28T11:35:46.499Z,9.60
2023-04-28T11:39:52.305Z,9.50
2023-04-28T11:43:57.058Z,9.50
2023-04-28T11:48:01.449Z,9.50
2023-04-28T11:52:10.788Z,9.50
2023-04-28T11:56:14.095Z,9.50
2023-04-28T12:00:23.485Z,9.60
2023-04-28T12:04:38.729Z,9.60
2023-04-28T12:08:43.742Z,9.60
2023-04-28T12:16:50.929Z,9.80
2023-04-28T12:20:51.845Z,9.90
2023-04-28T12:25:08.357Z,9.80
2023-04-28T12:29:10.341Z,9.90
2023-04-28T12:33:27.184Z,9.90
2023-04-28T12:37:27.347Z,9.90
2023-04-28T12:41:27.472Z,10.10
2023-04-28T12:45:27.904Z,10.20
2023-04-28T12:49:31.761Z,10.30
2023-04-28T12:53:31.921Z,10.40
2023-04-28T12:57:32.961Z,10.40
2023-04-28T13:01:34.071Z,10.40
2023-04-28T13:05:37.667Z,10.60
2023-04-28T13:09:38.579Z,10.60
2023-04-28T13:13:39.047Z,10.50
2023-04-28T13:17:39.942Z,10.50
2023-04-28T13:21:43.347Z,10.40
2023-04-28T13:25:44.744Z,10.30
2023-04-28T13:29:44.844Z,10.30
2023-04-28T13:33:45.440Z,10.40
2023-04-28T13:37:48.608Z,10.50
2023-04-28T13:41:49.190Z,10.60
2023-04-28T13:45:50.418Z,10.80
2023-04-28T13:49:50.936Z,10.90
2023-04-28T13:53:53.932Z,11.00
2023-04-28T14:03:05.989Z,11.20
2023-04-28T14:07:06.392Z,11.50
2023-04-28T14:11:09.629Z,11.40
2023-04-28T14:15:13.754Z,11.40
2023-04-28T14:19:17.542Z,11.30
2023-04-28T14:23:17.785Z,11.30
2023-04-28T14:27:20.618Z,11.40
2023-04-28T14:31:20.871Z,11.40
2023-04-28T14:35:22.142Z,11.50
2023-04-28T14:39:22.421Z,11.50
2023-04-28T14:43:26.184Z,11.50
2023-04-28T14:47:26.991Z,11.60
2023-04-28T14:51:27.905Z,11.60
2023-04-28T14:55:28.347Z,11.70
2023-04-28T14:59:31.261Z,11.70
2023-04-28T15:03:31.473Z,11.70
2023-04-28T15:07:32.779Z,11.60
2023-04-28T15:11:32.939Z,11.70
2023-04-28T15:15:35.815Z,11.90
2023-04-28T15:19:36.005Z,12.00
2023-04-28T15:23:36.178Z,12.10
2023-04-28T15:27:36.695Z,12.30
2023-04-28T15:31:41.280Z,12.30
2023-04-28T15:35:41.473Z,12.40
2023-04-28T15:39:41.603Z,12.60
2023-04-28T15:43:41.779Z,12.90
2023-04-28T15:47:46.932Z,13.20
2023-04-28T15:51:47.117Z,13.40
2023-04-28T15:55:47.370Z,13.30
2023-04-28T15:59:47.815Z,13.10
2023-04-28T16:03:50.916Z,12.90
2023-04-28T16:07:53.022Z,12.90
2023-04-28T16:11:53.331Z,12.90
2023-04-28T16:15:55.165Z,12.80
2023-04-28T16:19:58.086Z,12.60
2023-04-28T16:24:01.325Z,12.60
2023-04-28T16:28:02.464Z,12.50
2023-04-28T16:32:03.013Z,12.40
2023-04-28T16:36:06.839Z,12.50
2023-04-28T16:40:12.250Z,12.40
2023-04-28T16:44:12.862Z,12.30
2023-04-28T16:48:13.109Z,12.30
2023-04-28T16:52:16.871Z,12.20
2023-04-28T16:56:17.258Z,12.20
2023-04-28T17:00:19.343Z,12.30
2023-04-28T17:04:19.797Z,12.60
2023-04-28T17:08:23.018Z,12.50
2023-04-28T17:12:23.732Z,12.50
2023-04-28T17:16:24.081Z,12.40
2023-04-28T17:20:25.042Z,12.30
2023-04-28T17:24:28.400Z,12.20
2023-04-28T17:28:29.336Z,12.10
2023-04-28T17:32:31.230Z,12.10
2023-04-28T17:36:33.546Z,12.00
2023-04-28T17:40:45.032Z,11.90
2023-04-28T17:44:45.802Z,12.00
2023-04-28T17:48:49.198Z,12.00
2023-04-28T17:52:50.226Z,12.00
2023-04-28T17:56:55.013Z,12.00
2023-04-28T18:01:04.156Z,11.90
2023-04-28T18:05:08.265Z,11.90
2023-04-28T18:09:11.006Z,11.90
2023-04-28T18:13:14.442Z,11.90
2023-04-28T18:17:15.549Z,11.80
2023-04-28T18:21:16.747Z,11.70
2023-04-28T18:25:19.587Z,11.70
2023-04-28T18:29:23.080Z,11.60
2023-04-28T18:33:28.813Z,11.70
2023-04-28T18:37:37.301Z,11.70
2023-04-28T18:41:38.308Z,11.60
2023-04-28T18:45:44.305Z,11.50
2023-04-28T18:49:49.081Z,11.40
2023-04-28T18:53:50.674Z,11.30
2023-04-28T18:57:51.157Z,11.20
2023-04-28T19:01:53.960Z,11.20
2023-04-28T19:05:57.355Z,11.30
2023-04-28T19:10:00.394Z,11.30
2023-04-28T19:14:01.652Z,11.40
2023-04-28T19:18:06.882Z,11.40
2023-04-28T19:22:07.777Z,11.30
2023-04-28T19:26:08.162Z,11.40
2023-04-28T19:30:13.058Z,11.40
2023-04-28T19:34:16.617Z,11.40
2023-04-28T19:38:23.457Z,11.40
2023-04-28T19:42:24.965Z,11.50
2023-04-28T19:46:32.536Z,11.50
2023-04-28T19:50:38.165Z,11.50
2023-04-28T19:54:40.234Z,11.50
2023-04-28T19:58:41.302Z,11.50
2023-04-28T20:02:43.009Z,11.50
2023-04-28T20:06:46.609Z,11.50
2023-04-28T20:10:53.616Z,11.50
2023-04-28T20:14:54.923Z,11.50
2023-04-28T20:18:58.071Z,11.50
2023-04-28T20:23:01.658Z,11.50
2023-04-28T20:27:02.754Z,11.50
2023-04-28T20:31:07.866Z,11.50
2023-04-28T20:35:09.688Z,11.40
2023-04-28T20:39:18.590Z,11.40
2023-04-28T20:43:24.637Z,11.40
2023-04-28T20:47:25.094Z,11.30
2023-04-28T20:51:25.609Z,11.40
2023-04-28T20:55:29.033Z,11.30
2023-04-28T20:59:32.267Z,11.40
2023-04-28T21:03:33.665Z,11.30
2023-04-28T21:07:34.144Z,11.30
2023-04-28T21:11:37.603Z,11.30
2023-04-28T21:15:40.544Z,11.20
2023-04-28T21:19:40.762Z,11.20
2023-04-28T21:23:42.993Z,11.10
2023-04-28T21:27:55.617Z,11.10
2023-04-28T21:31:55.958Z,11.10
2023-04-28T21:35:56.287Z,11.10
2023-04-28T21:39:59.087Z,11.10
2023-04-28T21:44:02.650Z,11.10
2023-04-28T21:48:03.016Z,11.00
2023-04-28T21:52:03.480Z,10.90
2023-04-28T21:56:04.418Z,10.80
2023-04-28T22:00:13.129Z,10.60
2023-04-28T22:04:16.945Z,10.50
2023-04-28T22:08:17.816Z,10.40
2023-04-28T22:12:19.015Z,10.40
2023-04-28T22:16:21.873Z,10.40
2023-04-28T22:20:22.481Z,10.30
2023-04-28T22:24:23.279Z,10.20
2023-04-28T22:28:24.199Z,10.20
2023-04-28T22:32:27.763Z,10.10
2023-04-28T22:36:27.948Z,10.00
2023-04-28T22:40:28.113Z,10.00
2023-04-28T22:44:28.675Z,10.00
2023-04-28T22:48:31.536Z,10.00
2023-04-28T22:52:32.129Z,9.90
2023-04-28T22:56:32.352Z,9.90
2023-04-28T23:00:33.968Z,9.80
2023-04-28T23:04:40.223Z,9.90
2023-04-28T23:08:44.564Z,9.90
2023-04-28T23:12:45.142Z,9.90
2023-04-28T23:16:45.693Z,10.00
2023-04-28T23:20:50.808Z,9.90
2023-04-28T23:24:51.821Z,9.90
2023-04-28T23:28:52.075Z,9.90
2023-04-28T23:32:52.691Z,9.80
2023-04-28T23:36:55.498Z,9.80
2023-04-28T23:40:55.585Z,9.70
2023-04-28T23:44:56.084Z,9.80
2023-04-28T23:48:56.486Z,9.80
2023-04-28T23:52:59.189Z,9.90
2023-04-28T23:56:59.311Z,10.10
